If you wish to contribute or participate in the discussions about articles you are invited to join SKYbrary as a registered user

 Actions

Les Eplatures Airport

From SKYbrary Wiki

LSGC
Airport
ICAO: LSGC – IATA: ZHV
Summary
Name Les Eplatures Airport
Region Europe
Territory Switzerland CH.gif
Location La Chaux-de-Fonds, Neuchatel
Serving Les Eplatures
Elevation 1,026.566 m <br />3,368 ft <br />3,368 ft1,026.566 m <br />
Type medium airport
Coordinates 47° 5' 1.86" N, 6° 47' 34.22" E
Runways
Designator Length Width Surface ROPS
6/24 1130 m3,707.349 ft <br /> 27 m88.583 ft <br /> ASP /


METAR
Observation LSGC 081820Z AUTO 26002KT CAVOK 14/03 Q1015
Station Les Eplatures
Date/Time 08 May 2021 18:20:00
Wind direction 260°
Wind speed 02 kts
Lowest cloud amount clouds and visibility OK
Temperature 14°C
Dew point 3°C
Humidity 47%
QNH 1015 hPa
Weather condition n/a

Les Eplatures Airport is a small international airport near La Chaux-de-Fonds, Switzerland.

Climatology

Humid continental climate (Köppen climate classification Dfb)

Maps

Terrain

Loading map...

Airport Layout

Loading map...


Accidents & Serious Incidents at or in vicinity of LSGC

None on SKYbrary